EDDE/ERF METAR and TAF weather

Enter ICAO airport designator
Station Type Date Time Source
EDDE METAR 2021/09/24 02:50 UTC NOAA

EDDE 240250Z 28006KT 9999 FEW023 BKN032 13/11 Q1016


Station Type Date Time Source
EDDE Decoded METAR 2021/09/24 02:50 UTC NOAA

Erfurt-Bindersleben, Germany (EDDE) 50-59N 010-58E 322M
Sep 23, 2021 - 10:50 PM EDT / 2021.09.24 0250 UTC
Wind: from the W (280 degrees) at 7 MPH (6 KT):0
Visibility: greater than 7 mile(s):0
Sky conditions: mostly cloudy
Temperature: 55 F (13 C)
Dew Point: 51 F (11 C)
Relative Humidity: 87%
Pressure (altimeter): 30.00 in. Hg (1016 hPa)
ob: EDDE 240250Z 28006KT 9999 FEW023 BKN032 13/11 Q1016
cycle: 3

Station Type Date Time Source
EDDE TAF 2021/09/24 01:31 UTC NOAA

TAF
AMD EDDE 240123Z 2401/2424 27011G21KT 9999 FEW015 BKN040
TEMPO 2401/2403 2500 -RADZ BR BKN009

Example: see airport list